Time;durP1;ratioP1;P1;durP2;ratioP2;P2;SDS_P1;SDS_P2;PMS_P1;PMS_P2;Temp;Humidity;BMP_temperature;BMP_pressure;BME280_temperature;BME280_humidity;BME280_pressure;Samples;Min_cycle;Max_cycle;Signal;HPM_P1;HPM_P2
2022/12/08 00:01:31;;;;;;;8.73;4.90;;;;;;;4.87;100.00;101013.84;5016127;28;20053;-46
2022/12/08 00:03:59;;;;;;;8.32;4.60;;;;;;;4.86;100.00;101003.31;5002802;28;20046;-48
2022/12/08 00:09:26;;;;;;;;;;;;;;;4.87;100.00;100999.53;4978674;28;20093;-49
2022/12/08 00:11:57;;;;;;;10.20;5.85;;;;;;;4.85;100.00;101001.63;4983846;28;19969;-50
2022/12/08 00:14:34;;;;;;;9.32;5.53;;;;;;;4.85;100.00;100991.66;5011244;28;20488;-48
2022/12/08 00:17:03;;;;;;;9.63;5.95;;;;;;;4.86;100.00;100993.31;4994724;28;20045;-51
2022/12/08 00:19:31;;;;;;;12.27;5.85;;;;;;;4.86;100.00;100993.31;5016651;28;20049;-49
2022/12/08 00:21:59;;;;;;;9.77;5.63;;;;;;;4.86;100.00;100989.78;4998957;28;20125;-50
2022/12/08 00:24:31;;;;;;;9.80;5.90;;;;;;;4.85;100.00;100980.03;5016230;28;20038;-49
2022/12/08 00:26:58;;;;;;;11.20;5.65;;;;;;;4.85;100.00;100971.94;5008062;28;20054;-49
2022/12/08 00:29:26;;;;;;;9.95;6.22;;;;;;;4.85;100.00;100969.22;4992027;28;20125;-49
2022/12/08 00:31:54;;;;;;;11.38;6.50;;;;;;;4.86;100.00;100970.91;5015174;28;20048;-48
2022/12/08 00:34:21;;;;;;;10.77;6.40;;;;;;;4.86;100.00;100970.91;5003224;28;20537;-48
2022/12/08 00:36:49;;;;;;;9.32;5.85;;;;;;;4.85;100.00;100963.84;5006565;28;20104;-51
2022/12/08 00:39:17;;;;;;;8.48;5.50;;;;;;;4.85;100.00;100967.34;5015129;28;20042;-52
2022/12/08 00:44:31;;;;;;;10.82;6.40;;;;;;;4.84;100.00;100959.50;4997905;28;20056;-47
2022/12/08 00:46:58;;;;;;;9.52;5.80;;;;;;;4.82;100.00;100956.19;4995347;28;20045;-49
2022/12/08 00:49:26;;;;;;;10.20;5.90;;;;;;;4.82;100.00;100954.31;5015329;28;20050;-48
2022/12/08 00:51:54;;;;;;;13.50;6.03;;;;;;;4.83;100.00;100947.84;5015194;28;20496;-48
2022/12/08 00:54:22;;;;;;;11.18;6.55;;;;;;;4.85;100.00;100947.63;5014567;28;20543;-49
2022/12/08 00:56:50;;;;;;;10.68;6.13;;;;;;;4.84;100.00;100946.00;5001865;28;20043;-48
2022/12/08 00:59:18;;;;;;;9.07;5.95;;;;;;;4.85;100.00;100942.25;4997299;28;20042;-53
2022/12/08 01:01:46;;;;;;;10.05;5.43;;;;;;;4.82;100.00;100940.00;4997349;28;20046;-48
2022/12/08 01:04:15;;;;;;;9.95;5.75;;;;;;;4.79;100.00;100938.59;4971803;28;20038;-50
2022/12/08 01:06:43;;;;;;;8.95;6.10;;;;;;;4.79;100.00;100935.06;4990282;28;20089;-51
2022/12/08 01:09:12;;;;;;;10.32;6.10;;;;;;;4.82;100.00;100948.09;5013528;28;20112;-48
2022/12/08 01:11:41;;;;;;;9.13;5.82;;;;;;;4.80;100.00;100937.50;4986065;28;20497;-48
2022/12/08 01:14:11;;;;;;;8.32;5.18;;;;;;;4.81;100.00;100939.19;5005507;28;20038;-49
2022/12/08 01:16:40;;;;;;;11.02;6.10;;;;;;;4.82;100.00;100937.31;4985546;28;20042;-50
2022/12/08 01:19:10;;;;;;;8.85;5.63;;;;;;;4.80;100.00;100939.41;4992170;28;20408;-48
2022/12/08 01:21:37;;;;;;;8.63;5.68;;;;;;;4.81;100.00;100938.34;4978869;28;20054;-47
2022/12/08 01:24:05;;;;;;;9.07;5.68;;;;;;;4.82;100.00;100937.31;5014294;28;20038;-49
2022/12/08 01:26:33;;;;;;;8.52;5.50;;;;;;;4.83;100.00;100938.94;5003765;28;20046;-48
2022/12/08 01:29:01;;;;;;;11.18;5.95;;;;;;;4.80;100.00;100934.81;4987934;28;20428;-49
2022/12/08 01:31:29;;;;;;;9.63;5.80;;;;;;;4.81;100.00;100925.69;5014245;28;20081;-49
2022/12/08 01:33:57;;;;;;;9.38;5.65;;;;;;;4.80;100.00;100934.00;5013990;28;20038;-47
2022/12/08 01:36:29;;;;;;;9.15;5.43;;;;;;;4.80;100.00;100934.00;5010890;28;20049;-48
2022/12/08 01:38:59;;;;;;;10.00;5.90;;;;;;;4.80;100.00;100934.81;4996740;28;20104;-49
2022/12/08 01:41:29;;;;;;;8.45;5.47;;;;;;;4.79;100.00;100929.66;5009222;28;20118;-49
2022/12/08 01:44:02;;;;;;;9.02;5.55;;;;;;;4.78;100.00;100926.13;5011250;28;20084;-49
2022/12/08 01:46:33;;;;;;;8.70;5.43;;;;;;;4.77;100.00;100923.66;5011803;28;20128;-49
2022/12/08 01:49:18;;;;;;;12.20;5.45;;;;;;;4.76;100.00;100922.00;4964982;28;20970;-50
2022/12/08 01:51:50;;;;;;;8.63;5.00;;;;;;;4.73;100.00;100912.47;5010152;28;20061;-48
2022/12/08 01:54:18;;;;;;;8.55;5.35;;;;;;;4.74;100.00;100908.75;5013656;28;20062;-51
2022/12/08 01:56:59;;;;;;;8.50;4.97;;;;;;;4.77;100.00;100902.88;4977429;28;20058;-50
2022/12/08 01:59:28;;;;;;;8.40;5.28;;;;;;;4.76;100.00;100908.50;5000106;28;20049;-48
2022/12/08 02:01:56;;;;;;;7.93;4.88;;;;;;;4.77;100.00;100902.06;4984522;28;20159;-51
2022/12/08 02:04:24;;;;;;;11.30;5.10;;;;;;;4.76;100.00;100903.09;5011559;28;20054;-49
2022/12/08 02:06:52;;;;;;;9.70;5.15;;;;;;;4.75;100.00;100899.59;5004573;28;20053;-53
2022/12/08 02:09:21;;;;;;;9.70;4.82;;;;;;;4.77;100.00;100893.97;4978555;28;20039;-49
2022/12/08 02:11:50;;;;;;;8.00;5.00;;;;;;;4.76;100.00;100893.13;5003474;28;20052;-49
2022/12/08 02:14:17;;;;;;;10.93;5.05;;;;;;;4.77;100.00;100891.28;4994613;28;20046;-49
2022/12/08 02:17:16;;;;;;;8.00;5.07;;;;;;;4.77;100.00;100888.56;4984289;28;20096;-48
2022/12/08 02:19:56;;;;;;;7.40;4.70;;;;;;;4.78;100.00;100885.63;4996578;28;20050;-51
2022/12/08 02:22:28;;;;;;;7.75;5.00;;;;;;;4.79;100.00;100879.19;5016148;28;20045;-51
2022/12/08 02:25:03;;;;;;;8.77;5.13;;;;;;;4.78;100.00;100882.13;4993202;28;20186;-49
2022/12/08 02:28:09;;;;;;;7.85;4.72;;;;;;;4.78;100.00;100877.53;4959995;28;20053;-50
2022/12/08 02:30:57;;;;;;;8.80;4.90;;;;;;;4.78;100.00;100871.31;4980744;28;20049;-50
2022/12/08 02:33:36;;;;;;;6.35;4.38;;;;;;;4.78;100.00;100868.63;4987470;28;20070;-50
2022/12/08 02:36:22;;;;;;;8.65;4.90;;;;;;;4.79;100.00;100862.19;5007389;28;20489;-49
2022/12/08 02:39:01;;;;;;;8.32;4.75;;;;;;;4.80;100.00;100869.22;4988215;28;20092;-49
2022/12/08 02:41:45;;;;;;;8.25;5.00;;;;;;;4.77;100.00;100859.69;5012924;28;20169;-52
2022/12/08 02:44:27;;;;;;;6.30;4.15;;;;;;;4.78;100.00;100860.53;4989174;28;20068;-48
2022/12/08 02:46:58;;;;;;;7.60;4.03;;;;;;;4.81;100.00;100852.81;4991553;28;20039;-50
2022/12/08 02:49:33;;;;;;;8.40;4.72;;;;;;;4.77;100.00;100848.91;4995995;28;20037;-54
2022/12/08 02:52:10;;;;;;;7.13;4.45;;;;;;;4.78;100.00;100847.03;5013234;28;20049;-49
2022/12/08 02:54:51;;;;;;;8.25;4.95;;;;;;;4.75;100.00;100840.22;5012237;28;20424;-47
2022/12/08 02:58:03;;;;;;;9.02;5.00;;;;;;;4.74;100.00;100840.44;5013131;28;20108;-48
2022/12/08 03:00:56;;;;;;;7.72;4.28;;;;;;;4.73;100.00;100831.50;4954354;28;20108;-50
2022/12/08 03:03:46;;;;;;;8.02;4.50;;;;;;;4.69;100.00;100831.16;5011875;28;20046;-50
2022/12/08 03:06:28;;;;;;;7.85;4.70;;;;;;;4.70;100.00;100826.59;4991585;28;20559;-49
2022/12/08 03:09:32;;;;;;;7.00;4.50;;;;;;;4.73;100.00;100836.09;5011324;28;20041;-53
2022/12/08 03:12:47;;;;;;;8.73;4.53;;;;;;;4.73;100.00;100839.59;4999230;28;20061;-50
2022/12/08 03:15:17;;;;;;;6.38;4.57;;;;;;;4.70;100.00;100838.19;4976917;28;20081;-48
2022/12/08 03:17:49;;;;;;;7.45;5.00;;;;;;;4.66;100.00;100839.69;4992904;28;20034;-52
2022/12/08 03:20:21;;;;;;;7.20;4.28;;;;;;;4.65;100.00;100840.75;4979542;28;20034;-52
2022/12/08 03:22:50;;;;;;;6.15;4.13;;;;;;;4.64;100.00;100839.13;5003520;28;20547;-52
2022/12/08 03:25:21;;;;;;;7.22;4.25;;;;;;;4.67;100.00;100843.25;5003468;28;20038;-49
2022/12/08 03:27:50;;;;;;;6.70;4.00;;;;;;;4.67;100.00;100833.25;5016332;28;20046;-49
2022/12/08 03:30:18;;;;;;;6.15;3.40;;;;;;;4.62;100.00;100825.03;4983228;28;20408;-52
2022/12/08 03:33:22;;;;;;;6.47;3.40;;;;;;;4.60;100.00;100810.94;4994564;28;20042;-53
2022/12/08 03:35:50;;;;;;;4.05;3.05;;;;;;;4.61;100.00;100812.56;5002822;28;20069;-48
2022/12/08 03:38:18;;;;;;;2.83;2.50;;;;;;;4.64;100.00;100806.75;4999073;28;20038;-50
2022/12/08 03:41:17;;;;;;;4.35;2.90;;;;;;;4.65;100.00;100800.28;5016608;28;20042;-50
2022/12/08 03:43:33;;;;;;;3.72;2.63;;;;;;;4.66;100.00;100799.22;4998783;28;20046;-53
2022/12/08 03:46:01;;;;;;;6.55;2.58;;;;;;;4.67;100.00;100781.97;4981525;28;20049;-50
2022/12/08 03:48:28;;;;;;;4.65;3.05;;;;;;;4.69;100.00;100789.88;5017377;28;20057;-50
2022/12/08 03:50:56;;;;;;;5.25;2.80;;;;;;;4.69;100.00;100785.28;5003206;28;20130;-49
2022/12/08 03:53:23;;;;;;;5.32;3.05;;;;;;;4.70;100.00;100784.22;5015911;28;20038;-49
2022/12/08 03:55:52;;;;;;;5.78;3.45;;;;;;;4.70;100.00;100778.81;5009593;28;20081;-48
2022/12/08 03:58:20;;;;;;;5.15;3.40;;;;;;;4.71;100.00;100782.34;4992991;28;20138;-48
2022/12/08 04:00:48;;;;;;;5.85;3.35;;;;;;;4.72;100.00;100780.47;4998401;28;20034;-50
2022/12/08 04:03:15;;;;;;;4.75;3.35;;;;;;;4.70;100.00;100783.41;4997714;28;20041;-48
2022/12/08 04:05:43;;;;;;;5.70;3.35;;;;;;;4.72;100.00;100780.47;5011806;28;20041;-49
2022/12/08 04:08:10;;;;;;;5.72;3.42;;;;;;;4.73;100.00;100772.13;5016071;28;20050;-51
2022/12/08 04:10:38;;;;;;;5.00;3.28;;;;;;;4.73;100.00;100772.13;5015538;28;20045;-48
2022/12/08 04:13:06;;;;;;;6.88;3.55;;;;;;;4.73;100.00;100771.31;5012929;28;20066;-50
2022/12/08 04:15:34;;;;;;;6.50;3.20;;;;;;;4.73;100.00;100772.13;5010568;28;20042;-50
2022/12/08 04:18:01;;;;;;;6.10;3.20;;;;;;;4.75;100.00;100758.41;5015624;28;20038;-48
2022/12/08 04:20:29;;;;;;;5.45;3.00;;;;;;;4.69;100.00;100758.28;4998454;28;20045;-52
2022/12/08 04:22:56;;;;;;;6.32;3.22;;;;;;;4.67;100.00;100765.78;5015741;28;20038;-51
2022/12/08 04:25:24;;;;;;;7.13;3.70;;;;;;;4.67;100.00;100757.69;5010209;28;20412;-48
2022/12/08 04:27:52;;;;;;;6.03;3.45;;;;;;;4.68;100.00;100766.59;4984101;28;20034;-51
2022/12/08 04:30:19;;;;;;;7.25;3.83;;;;;;;4.68;100.00;100756.63;5009325;28;20492;-50
2022/12/08 04:32:47;;;;;;;7.07;3.53;;;;;;;4.68;100.00;100756.63;5012713;28;20069;-51
2022/12/08 04:35:15;;;;;;;6.60;3.92;;;;;;;4.66;100.00;100756.03;5013254;28;20046;-53
2022/12/08 04:37:43;;;;;;;6.70;3.90;;;;;;;4.69;100.00;100758.28;4998265;28;20038;-50
2022/12/08 04:40:11;;;;;;;7.75;4.32;;;;;;;4.69;100.00;100762.88;4998184;28;20043;-50
2022/12/08 04:42:39;;;;;;;6.15;4.00;;;;;;;4.66;100.00;100760.63;5015171;28;20046;-50
2022/12/08 04:45:07;;;;;;;6.75;3.90;;;;;;;4.63;100.00;100761.91;4980291;28;20436;-51
2022/12/08 04:47:35;;;;;;;6.88;3.88;;;;;;;4.63;100.00;100751.09;5015104;28;20037;-51
2022/12/08 04:50:03;;;;;;;6.60;4.15;;;;;;;4.65;100.00;100748.19;5015412;28;20409;-51
2022/12/08 04:52:31;;;;;;;6.43;4.40;;;;;;;4.66;100.00;100742.53;5012749;28;20436;-50
2022/12/08 04:54:58;;;;;;;9.07;4.72;;;;;;;4.67;100.00;100752.31;5005829;28;20054;-47
2022/12/08 04:57:26;;;;;;;7.60;5.05;;;;;;;4.67;100.00;100762.28;4982171;28;20042;-52
2022/12/08 04:59:54;;;;;;;7.93;5.00;;;;;;;4.65;100.00;100762.50;5014789;28;20046;-47
2022/12/08 05:02:21;;;;;;;7.70;4.82;;;;;;;4.65;100.00;100754.41;4996867;28;20092;-52
2022/12/08 05:04:49;;;;;;;7.07;4.97;;;;;;;4.66;100.00;100750.63;5006248;28;20461;-48
2022/12/08 05:07:17;;;;;;;9.02;4.68;;;;;;;4.68;100.00;100743.13;4997522;28;20440;-50
2022/12/08 05:09:44;;;;;;;9.30;5.15;;;;;;;4.67;100.00;100748.78;5014711;28;20041;-51
2022/12/08 05:12:12;;;;;;;8.40;5.25;;;;;;;4.66;100.00;100741.72;5000464;28;20054;-50
2022/12/08 05:14:39;;;;;;;7.32;5.30;;;;;;;4.66;100.00;100750.63;5008306;28;20043;-46
2022/12/08 05:17:07;;;;;;;7.85;5.10;;;;;;;4.66;100.00;100737.16;5008392;28;20046;-49
2022/12/08 05:19:36;;;;;;;8.73;5.43;;;;;;;4.67;100.00;100741.50;5014484;28;20046;-49
2022/12/08 05:22:04;;;;;;;8.20;5.45;;;;;;;4.66;100.00;100742.53;5014304;28;20042;-51
2022/12/08 05:24:31;;;;;;;8.10;5.68;;;;;;;4.66;100.00;100741.72;5000797;28;20088;-50
2022/12/08 05:26:59;;;;;;;8.30;5.38;;;;;;;4.66;100.00;100742.53;5014391;28;20072;-51
2022/12/08 05:29:26;;;;;;;8.65;5.97;;;;;;;4.69;100.00;100750.19;5014097;28;20046;-49
2022/12/08 05:31:54;;;;;;;9.48;5.70;;;;;;;4.68;100.00;100743.13;5012443;28;20464;-51
2022/12/08 05:34:22;;;;;;;7.40;4.82;;;;;;;4.69;100.00;100749.38;5008309;28;20405;-51
2022/12/08 05:36:49;;;;;;;8.55;5.85;;;;;;;4.68;100.00;100742.31;4984372;28;20388;-48
2022/12/08 05:39:17;;;;;;;7.35;4.80;;;;;;;4.66;100.00;100741.72;5013933;28;20096;-48
2022/12/08 05:41:44;;;;;;;6.97;5.00;;;;;;;4.64;100.00;100739.28;5013686;28;20041;-50
2022/12/08 05:44:12;;;;;;;7.40;4.50;;;;;;;4.65;100.00;100734.69;5008880;28;20117;-53
2022/12/08 05:46:40;;;;;;;6.90;4.65;;;;;;;4.64;100.00;100735.72;5009050;28;20489;-51
2022/12/08 05:49:07;;;;;;;6.82;4.32;;;;;;;4.64;100.00;100724.94;4994411;28;20039;-51
2022/12/08 05:51:35;;;;;;;7.80;4.85;;;;;;;4.64;100.00;100727.63;5008803;28;20057;-50
2022/12/08 05:54:03;;;;;;;6.55;4.40;;;;;;;4.64;100.00;100725.78;4976131;28;20515;-52
2022/12/08 05:56:30;;;;;;;8.70;4.68;;;;;;;4.64;100.00;100725.78;4962265;28;20035;-50
2022/12/08 05:58:58;;;;;;;6.30;4.25;;;;;;;4.63;100.00;100724.13;4991866;28;20042;-48
2022/12/08 06:01:28;;;;;;;7.47;4.18;;;;;;;4.63;100.00;100729.50;5004039;28;20038;-46
2022/12/08 06:03:57;;;;;;;6.45;3.85;;;;;;;4.62;100.00;100727.06;4963203;28;20038;-49
2022/12/08 06:06:25;;;;;;;6.45;4.00;;;;;;;4.59;100.00;100731.03;4996046;28;20505;-47
2022/12/08 06:08:53;;;;;;;4.80;3.47;;;;;;;4.55;100.00;100721.75;4994163;28;20400;-51
2022/12/08 06:11:24;;;;;;;4.78;3.50;;;;;;;4.55;100.00;100729.03;5000591;28;20523;-51
2022/12/08 06:13:52;;;;;;;6.28;3.47;;;;;;;4.54;100.00;100720.09;5008462;28;20096;-52
2022/12/08 06:16:19;;;;;;;6.40;3.50;;;;;;;4.53;100.00;100721.16;5013697;28;20498;-49
2022/12/08 06:18:47;;;;;;;4.95;3.10;;;;;;;4.54;100.00;100719.28;5013358;28;20088;-47
2022/12/08 06:21:16;;;;;;;4.75;3.30;;;;;;;4.55;100.00;100724.47;4983307;28;20042;-48
2022/12/08 06:23:46;;;;;;;3.95;2.90;;;;;;;4.55;100.00;100726.34;4978120;28;20046;-47
2022/12/08 06:26:14;;;;;;;4.50;2.70;;;;;;;4.56;100.00;100719.88;5007327;28;20053;-52
2022/12/08 06:28:42;;;;;;;7.10;3.70;;;;;;;4.59;100.00;100712.13;4987783;28;20179;-50
2022/12/08 06:31:16;;;;;;;3.92;2.45;;;;;;;4.63;100.00;100718.72;5013999;28;20050;-49
2022/12/08 06:33:45;;;;;;;4.72;2.80;;;;;;;4.64;100.00;100715.00;5005963;28;20070;-46
2022/12/08 06:36:13;;;;;;;3.88;2.65;;;;;;;4.63;100.00;100707.94;5012723;28;20046;-49
2022/12/08 06:38:41;;;;;;;4.82;3.03;;;;;;;4.61;100.00;100704.63;4979562;28;20412;-48
2022/12/08 06:41:11;;;;;;;6.32;3.03;;;;;;;4.59;100.00;100706.75;5012220;28;20046;-48
2022/12/08 06:43:40;;;;;;;2.80;2.28;;;;;;;4.60;100.00;100705.69;5001853;28;20046;-48
2022/12/08 06:46:09;;;;;;;2.97;2.22;;;;;;;4.59;100.00;100705.91;4981279;28;20049;-50
2022/12/08 06:48:38;;;;;;;5.03;2.88;;;;;;;4.59;100.00;100714.03;5012903;28;20460;-51
2022/12/08 06:51:14;;;;;;;4.25;2.50;;;;;;;4.56;100.00;100712.59;5010135;28;20054;-48
2022/12/08 06:53:42;;;;;;;3.90;2.13;;;;;;;4.58;100.00;100715.91;4986179;28;20046;-50
2022/12/08 06:56:11;;;;;;;4.85;2.35;;;;;;;4.56;100.00;100714.47;4979181;28;20054;-48
2022/12/08 06:58:38;;;;;;;6.38;2.55;;;;;;;4.55;100.00;100710.97;5012470;28;20046;-51
2022/12/08 07:01:08;;;;;;;6.00;2.40;;;;;;;4.57;100.00;100705.31;5012577;28;20381;-49
2022/12/08 07:03:37;;;;;;;3.80;1.98;;;;;;;4.57;100.00;100703.47;5006482;28;20042;-49
2022/12/08 07:06:05;;;;;;;3.13;1.80;;;;;;;4.57;100.00;100705.31;4995106;28;20038;-50
2022/12/08 07:08:33;;;;;;;4.20;2.10;;;;;;;4.59;100.00;100704.03;5000031;28;20346;-51
2022/12/08 07:11:09;;;;;;;4.03;1.92;;;;;;;4.57;100.00;100706.16;4976439;28;20085;-51
2022/12/08 07:13:37;;;;;;;4.82;2.45;;;;;;;4.62;100.00;100702.78;4999801;28;20133;-51
2022/12/08 07:16:09;;;;;;;6.45;2.40;;;;;;;4.62;100.00;100711.69;5012246;28;20087;-49
2022/12/08 07:18:37;;;;;;;6.40;2.40;;;;;;;4.55;100.00;100710.97;4967962;28;20409;-48
2022/12/08 07:21:13;;;;;;;5.32;2.50;;;;;;;4.54;100.00;100706.63;5008929;28;20038;-52
2022/12/08 07:23:42;;;;;;;5.63;2.30;;;;;;;4.56;100.00;100709.91;4993961;28;20512;-46
2022/12/08 07:26:11;;;;;;;4.38;2.08;;;;;;;4.54;100.00;100714.72;4993634;28;20493;-49
2022/12/08 07:28:40;;;;;;;4.20;2.20;;;;;;;4.54;100.00;100714.72;4994781;28;20057;-47
2022/12/08 07:31:16;;;;;;;5.63;2.50;;;;;;;4.55;100.00;100719.06;4980882;28;20049;-48
2022/12/08 07:33:44;;;;;;;8.75;4.03;;;;;;;4.55;100.00;100713.66;5002491;28;20046;-48
2022/12/08 07:36:12;;;;;;;4.63;2.60;;;;;;;4.57;100.00;100719.66;4961904;28;20050;-47
2022/12/08 07:38:40;;;;;;;4.15;2.40;;;;;;;4.56;100.00;100718.00;5012486;28;20049;-50
2022/12/08 07:41:13;;;;;;;7.25;2.28;;;;;;;4.58;100.00;100717.78;5008452;28;20045;-49
2022/12/08 07:43:41;;;;;;;5.05;1.98;;;;;;;4.58;100.00;100718.59;5004091;28;20093;-51
2022/12/08 07:46:16;;;;;;;6.43;2.13;;;;;;;4.59;100.00;100714.84;4976387;28;20065;-51
2022/12/08 07:48:45;;;;;;;3.85;1.98;;;;;;;4.59;100.00;100714.84;4989717;28;20043;-47
2022/12/08 07:51:14;;;;;;;4.65;2.30;;;;;;;4.59;100.00;100712.13;4996511;28;20050;-48
2022/12/08 07:53:46;;;;;;;6.53;2.08;;;;;;;4.59;100.00;100709.44;5012574;28;20116;-50
2022/12/08 07:56:21;;;;;;;3.13;1.90;;;;;;;4.59;100.00;100711.31;5011601;28;20104;-51
2022/12/08 07:58:49;;;;;;;6.07;2.40;;;;;;;4.59;100.00;100706.75;4978402;28;20053;-50
2022/12/08 08:01:25;;;;;;;3.85;2.30;;;;;;;4.58;100.00;100718.59;5003941;28;20485;-50
2022/12/08 08:03:55;;;;;;;4.07;2.53;;;;;;;4.60;100.00;100713.78;4977507;28;20093;-49
2022/12/08 08:06:23;;;;;;;5.85;2.55;;;;;;;4.62;100.00;100713.56;5005324;28;20046;-47
2022/12/08 08:08:50;;;;;;;4.82;2.20;;;;;;;4.61;100.00;100715.44;5014463;28;20117;-50
2022/12/08 08:11:19;;;;;;;5.70;2.33;;;;;;;4.62;100.00;100721.66;4996271;28;20046;-49
2022/12/08 08:13:49;;;;;;;7.43;2.33;;;;;;;4.60;100.00;100719.19;4978228;28;20100;-50
2022/12/08 08:16:17;;;;;;;3.90;2.25;;;;;;;4.59;100.00;100725.63;5016026;28;20064;-50
2022/12/08 08:18:49;;;;;;;4.20;2.15;;;;;;;4.58;100.00;100724.00;4982496;28;20166;-50
2022/12/08 08:21:18;;;;;;;5.35;1.90;;;;;;;4.57;100.00;100713.41;5011438;28;20045;-52
2022/12/08 08:24:06;;;;;;;5.05;2.00;;;;;;;4.53;100.00;100723.88;5015588;28;20508;-48
2022/12/08 08:26:33;;;;;;;5.03;2.05;;;;;;;4.48;100.00;100724.56;4998248;28;20127;-47
2022/12/08 08:29:01;;;;;;;6.10;2.20;;;;;;;4.43;100.00;100724.44;5015525;28;20061;-49
2022/12/08 08:31:29;;;;;;;2.75;1.90;;;;;;;4.43;100.00;100729.00;4986883;28;20037;-53
2022/12/08 08:33:56;;;;;;;7.22;2.28;;;;;;;4.43;100.00;100729.81;4997941;28;20046;-51
2022/12/08 08:36:24;;;;;;;3.72;1.98;;;;;;;4.44;100.00;100722.53;5008173;28;20034;-48
2022/12/08 08:38:52;;;;;;;3.70;2.10;;;;;;;4.44;100.00;100723.34;4999984;28;20049;-49
2022/12/08 08:41:19;;;;;;;3.70;2.50;;;;;;;4.43;100.00;100731.69;5005585;28;20049;-48
2022/12/08 08:43:47;;;;;;;3.97;2.50;;;;;;;4.43;100.00;100739.78;5015319;28;20034;-49
2022/12/08 08:46:14;;;;;;;4.85;2.75;;;;;;;4.43;100.00;100737.09;5015220;28;20037;-50
2022/12/08 08:48:42;;;;;;;3.58;2.58;;;;;;;4.38;100.00;100736.97;5015339;28;20401;-50
2022/12/08 08:51:12;;;;;;;3.60;2.40;;;;;;;4.32;100.00;100727.06;4292487;28;10000027;-47
2022/12/08 08:53:40;;;;;;;4.30;1.92;;;;;;;4.28;100.00;100732.09;4994440;28;20044;-51
2022/12/08 08:56:13;;;;;;;1.92;1.50;;;;;;;4.24;100.00;100737.13;5012077;28;20065;-48
2022/12/08 08:58:41;;;;;;;2.83;1.90;;;;;;;4.24;100.00;100739.84;4988471;28;20046;-48
2022/12/08 09:01:13;;;;;;;1.25;1.15;;;;;;;4.24;100.00;100742.53;4999658;28;20378;-53
2022/12/08 09:03:40;;;;;;;2.78;1.63;;;;;;;4.26;100.00;100745.00;4971344;28;20061;-48
2022/12/08 09:06:08;;;;;;;1.33;1.20;;;;;;;4.27;100.00;100741.25;4999070;28;20078;-54
2022/12/08 09:08:36;;;;;;;1.58;1.33;;;;;;;4.27;100.00;100736.66;5012085;28;20577;-49
2022/12/08 09:11:04;;;;;;;1.30;1.20;;;;;;;4.31;100.00;100737.06;4979883;28;20050;-49
2022/12/08 09:13:31;;;;;;;1.20;1.20;;;;;;;4.33;100.00;100740.34;4991822;28;20042;-48
2022/12/08 09:16:04;;;;;;;2.65;1.30;;;;;;;4.33;100.00;100739.50;5009331;28;20046;-48
2022/12/08 09:18:33;;;;;;;1.70;1.60;;;;;;;4.33;100.00;100739.50;4995254;28;20038;-51
2022/12/08 09:21:11;;;;;;;2.35;1.58;;;;;;;4.25;100.00;100738.75;4966577;28;20038;-49
2022/12/08 09:23:39;;;;;;;3.00;1.90;;;;;;;4.23;100.00;100734.66;4996119;28;20046;-49
2022/12/08 09:26:07;;;;;;;3.33;2.55;;;;;;;4.27;100.00;100735.84;4994514;28;20508;-47
2022/12/08 09:28:35;;;;;;;2.85;2.08;;;;;;;4.24;100.00;100739.84;5004195;28;20038;-49
2022/12/08 09:31:03;;;;;;;3.17;2.40;;;;;;;4.25;100.00;100743.34;5008368;28;20046;-49
2022/12/08 09:33:31;;;;;;;4.30;2.25;;;;;;;4.30;100.00;100740.78;5005624;28;20055;-48
2022/12/08 09:36:02;;;;;;;4.15;2.55;;;;;;;4.31;100.00;100737.06;5008118;28;20037;-48
2022/12/08 09:38:31;;;;;;;3.50;2.40;;;;;;;4.33;100.00;100739.50;4981009;28;20053;-49
2022/12/08 09:41:00;;;;;;;5.10;3.00;;;;;;;4.37;100.00;100736.13;4980555;28;20567;-56
2022/12/08 09:43:56;;;;;;;4.70;2.85;;;;;;;4.43;100.00;100732.53;4996974;28;20100;-47
2022/12/08 09:46:26;;;;;;;10.60;6.78;;;;;;;4.48;100.00;100719.16;4999540;28;20042;-49
2022/12/08 09:48:56;;;;;;;21.73;15.10;;;;;;;4.53;100.00;100723.06;4971528;28;20054;-49
2022/12/08 09:51:32;;;;;;;15.15;11.30;;;;;;;4.57;100.00;100722.38;4976238;28;20053;-46
2022/12/08 09:54:06;;;;;;;6.82;3.80;;;;;;;4.61;100.00;100726.22;4996846;28;20050;-48
2022/12/08 09:56:36;;;;;;;4.32;2.58;;;;;;;4.65;100.00;100726.59;4978991;28;20105;-48
2022/12/08 09:59:31;;;;;;;3.15;2.28;;;;;;;4.66;100.00;100734.44;4974257;28;20039;-47
2022/12/08 10:02:00;;;;;;;3.13;2.30;;;;;;;4.67;100.00;100730.72;4986362;28;20100;-47
2022/12/08 10:04:36;;;;;;;3.70;2.05;;;;;;;4.68;100.00;100729.66;4972452;28;20515;-49
2022/12/08 10:07:16;;;;;;;11.02;7.13;;;;;;;4.70;100.00;100722.13;4977836;28;20051;-51
2022/12/08 10:09:51;;;;;;;3.97;2.53;;;;;;;4.72;100.00;100721.09;5010563;28;20034;-47
2022/12/08 10:12:21;;;;;;;3.75;2.30;;;;;;;4.70;100.00;100718.63;5002141;28;20501;-49
2022/12/08 10:14:55;;;;;;;3.08;2.30;;;;;;;4.68;100.00;100724.25;4996339;28;20046;-50
2022/12/08 10:17:43;;;;;;;3.22;2.70;;;;;;;4.69;100.00;100711.59;4980279;28;20034;-49
2022/12/08 10:20:20;;;;;;;4.60;2.60;;;;;;;4.72;100.00;100710.31;4996033;28;20508;-48
2022/12/08 10:23:04;;;;;;;3.90;2.38;;;;;;;4.72;100.00;100710.31;4986350;28;20034;-48
2022/12/08 10:25:47;;;;;;;4.78;2.67;;;;;;;4.73;100.00;100709.25;4975674;28;20031;-48
2022/12/08 10:28:15;;;;;;;7.00;2.80;;;;;;;4.73;100.00;100706.53;4975828;28;20074;-48
2022/12/08 10:30:43;;;;;;;5.13;2.60;;;;;;;4.70;100.00;100703.25;4997082;28;20045;-49
2022/12/08 10:33:15;;;;;;;4.85;2.50;;;;;;;4.72;100.00;100700.34;4984747;28;20081;-46
2022/12/08 10:35:45;;;;;;;6.45;2.60;;;;;;;4.72;100.00;100697.63;4995317;28;20493;-47
2022/12/08 10:38:41;;;;;;;6.20;3.22;;;;;;;4.70;100.00;100703.25;5013001;28;20050;-48
2022/12/08 10:41:09;;;;;;;6.18;2.85;;;;;;;4.69;100.00;100690.81;4964743;28;20050;-57
2022/12/08 10:43:46;;;;;;;4.88;2.75;;;;;;;4.68;100.00;100693.75;5010679;28;20049;-45
2022/12/08 10:46:24;;;;;;;5.82;2.80;;;;;;;4.69;100.00;100698.91;4995971;28;20050;-49
2022/12/08 10:49:05;;;;;;;4.70;2.70;;;;;;;4.68;100.00;100691.84;5014585;28;20409;-49
2022/12/08 10:51:33;;;;;;;4.50;2.22;;;;;;;4.67;100.00;100692.13;4989630;28;20096;-49
2022/12/08 10:54:02;;;;;;;5.40;2.70;;;;;;;4.68;100.00;100699.97;5003562;28;20070;-51
2022/12/08 10:56:31;;;;;;;5.82;2.83;;;;;;;4.71;100.00;100693.28;4972136;28;20117;-50
2022/12/08 10:59:25;;;;;;;5.53;2.40;;;;;;;4.67;100.00;100692.13;5014666;28;20053;-49
2022/12/08 11:01:56;;;;;;;4.55;2.38;;;;;;;4.66;100.00;100696.66;5009423;28;20046;-49
2022/12/08 11:04:35;;;;;;;3.47;2.42;;;;;;;4.69;100.00;100693.53;5012680;28;20042;-47
2022/12/08 11:07:04;;;;;;;5.90;2.72;;;;;;;4.67;100.00;100690.22;4967036;28;20050;-49
2022/12/08 11:09:47;;;;;;;4.18;2.47;;;;;;;4.69;100.00;100685.44;5012453;28;20038;-47
2022/12/08 11:12:16;;;;;;;6.43;2.65;;;;;;;4.68;100.00;100681.06;4996354;28;20504;-50
2022/12/08 11:14:45;;;;;;;6.22;2.70;;;;;;;4.68;100.00;100683.75;4971946;28;20046;-46
2022/12/08 11:17:17;;;;;;;5.95;2.50;;;;;;;4.66;100.00;100679.66;4971928;28;20038;-49
2022/12/08 11:20:18;;;;;;;6.20;2.58;;;;;;;4.65;100.00;100672.63;4969954;28;20093;-47
2022/12/08 11:22:53;;;;;;;5.00;2.70;;;;;;;4.65;100.00;100670.75;4992385;28;20046;-46
2022/12/08 11:25:28;;;;;;;4.93;2.28;;;;;;;4.66;100.00;100669.69;4995909;28;20395;-45
2022/12/08 11:28:00;;;;;;;8.02;2.80;;;;;;;4.64;100.00;100671.81;4995203;28;20050;-49
2022/12/08 11:30:31;;;;;;;5.57;2.50;;;;;;;4.63;100.00;100672.84;4995285;28;20042;-48
2022/12/08 11:33:12;;;;;;;4.60;2.17;;;;;;;4.64;100.00;100660.16;4988179;28;20042;-47
2022/12/08 11:35:43;;;;;;;5.38;2.80;;;;;;;4.60;100.00;100662.53;5003992;28;20048;-49
2022/12/08 11:38:11;;;;;;;8.00;3.60;;;;;;;4.56;100.00;100664.03;5009827;28;20049;-49
2022/12/08 11:41:07;;;;;;;7.22;3.95;;;;;;;4.56;100.00;100658.63;4983447;28;20053;-49
2022/12/08 11:44:00;;;;;;;4.90;2.10;;;;;;;4.54;100.00;100657.22;5011370;28;20081;-49
2022/12/08 11:46:33;;;;;;;;;;;;;;;4.54;100.00;100659.94;5012229;28;20042;-48
2022/12/08 11:49:03;;;;;;;4.05;2.53;;;;;;;4.56;100.00;100658.63;4990783;28;19921;-49
2022/12/08 11:51:45;;;;;;;3.47;2.10;;;;;;;4.55;100.00;100650.81;5010573;28;20042;-47